createdAt,value
2023-11-02T00:03:01.367Z,93721.53
2023-11-02T00:06:34.275Z,93726.59
2023-11-02T00:09:44.770Z,93721.09
2023-11-02T00:12:53.854Z,93698.56
2023-11-02T00:16:04.349Z,93685.34
2023-11-02T00:19:20.178Z,93673.16
2023-11-02T00:22:29.888Z,93665.44
2023-11-02T00:25:51.883Z,93671.13
2023-11-02T00:29:00.735Z,93664.44
2023-11-02T00:32:10.415Z,93654.94
2023-11-02T00:35:19.186Z,93646.78
2023-11-02T00:38:29.007Z,93656.88
2023-11-02T00:41:39.477Z,93649.19
2023-11-02T00:44:50.153Z,93649.13
2023-11-02T00:47:59.323Z,93640.25
2023-11-02T00:51:21.332Z,93648.50
2023-11-02T00:54:55.558Z,93643.81
2023-11-02T00:58:12.629Z,93632.88
2023-11-02T01:01:23.601Z,93637.28
2023-11-02T01:04:56.202Z,93634.03
2023-11-02T01:08:05.466Z,93638.06
2023-11-02T01:11:16.197Z,93635.91
2023-11-02T01:14:48.001Z,93626.34
2023-11-02T01:17:57.111Z,93615.75
2023-11-02T01:21:08.013Z,93616.06
2023-11-02T01:24:25.429Z,93606.09
2023-11-02T01:27:34.547Z,93599.00
2023-11-02T01:31:26.797Z,93592.47
2023-11-02T01:34:40.386Z,93586.22
2023-11-02T01:37:50.672Z,93578.34
2023-11-02T01:41:07.840Z,93557.09
2023-11-02T01:44:22.390Z,93548.16
2023-11-02T01:47:51.465Z,93549.91
2023-11-02T01:51:08.152Z,93538.53
2023-11-02T01:54:25.288Z,93534.88
2023-11-02T01:57:41.198Z,93511.19
2023-11-02T02:00:56.089Z,93503.72
2023-11-02T02:04:17.326Z,93487.13
2023-11-02T02:07:39.122Z,93489.97
2023-11-02T02:11:02.593Z,93472.56
2023-11-02T02:14:24.314Z,93467.75
2023-11-02T02:17:45.224Z,93463.66
2023-11-02T02:21:01.090Z,93447.88
2023-11-02T02:24:14.316Z,93443.00
2023-11-02T02:28:09.415Z,93431.66
2023-11-02T02:31:41.997Z,93421.91
2023-11-02T02:35:01.216Z,93406.75
2023-11-02T02:38:18.442Z,93408.75
2023-11-02T02:41:31.018Z,93391.97
2023-11-02T02:44:43.015Z,93383.06
2023-11-02T02:47:54.963Z,93370.66
2023-11-02T02:51:08.432Z,93354.25
2023-11-02T02:54:19.263Z,93353.44
2023-11-02T02:57:31.115Z,93345.53
2023-11-02T03:00:41.952Z,93343.31
2023-11-02T03:03:50.696Z,93344.53
2023-11-02T03:07:04.479Z,93357.28
2023-11-02T03:10:15.230Z,93358.91
2023-11-02T03:13:28.417Z,93344.94
2023-11-02T03:16:41.167Z,93332.34
2023-11-02T03:19:51.667Z,93329.53
2023-11-02T03:23:07.278Z,93327.91
2023-11-02T03:26:27.198Z,93322.44
2023-11-02T03:29:42.972Z,93321.81
2023-11-02T03:32:58.310Z,93302.34
2023-11-02T03:36:11.952Z,93297.50
2023-11-02T03:39:33.607Z,93276.59
2023-11-02T03:42:50.493Z,93259.00
2023-11-02T03:46:17.828Z,93247.06
2023-11-02T03:49:31.088Z,93241.19
2023-11-02T03:52:49.791Z,93224.56
2023-11-02T03:56:13.213Z,93207.56
2023-11-02T03:59:32.937Z,93195.81
2023-11-02T04:02:50.055Z,93176.19
2023-11-02T04:06:01.128Z,93167.06
2023-11-02T04:09:16.181Z,93157.09
2023-11-02T04:12:33.991Z,93135.41
2023-11-02T04:15:43.201Z,93130.13
2023-11-02T04:18:51.952Z,93123.41
2023-11-02T04:22:01.502Z,93117.13
2023-11-02T04:25:14.101Z,93121.19
2023-11-02T04:28:26.725Z,93112.91
2023-11-02T04:31:35.454Z,93099.50
2023-11-02T04:34:44.143Z,93091.53
2023-11-02T04:38:06.235Z,93083.97
2023-11-02T04:41:15.404Z,93090.16
2023-11-02T04:44:26.128Z,93080.03
2023-11-02T04:47:36.275Z,93066.13
2023-11-02T04:50:46.598Z,93049.88
2023-11-02T04:53:56.782Z,93041.75
2023-11-02T04:57:08.600Z,93042.03
2023-11-02T05:00:23.418Z,93052.44
2023-11-02T05:03:32.851Z,93037.03
2023-11-02T05:06:41.716Z,93030.16
2023-11-02T05:09:51.082Z,93015.09
2023-11-02T05:13:02.454Z,92996.44
2023-11-02T05:16:15.535Z,92979.06
2023-11-02T05:19:26.583Z,92981.19
2023-11-02T05:22:35.590Z,92978.16
2023-11-02T05:25:45.245Z,92977.53
2023-11-02T05:28:56.782Z,92958.16
2023-11-02T05:32:10.441Z,92959.91
2023-11-02T05:35:20.023Z,92947.53
2023-11-02T05:38:31.397Z,92941.91
2023-11-02T05:41:39.988Z,92957.03
2023-11-02T05:44:51.707Z,92957.28
2023-11-02T05:48:01.786Z,92946.59
2023-11-02T05:51:10.579Z,92949.47
2023-11-02T05:54:19.471Z,92948.09
2023-11-02T05:57:28.928Z,92939.03
2023-11-02T06:00:38.503Z,92947.22
2023-11-02T06:03:48.865Z,92934.88
2023-11-02T06:06:57.729Z,92926.47
2023-11-02T06:10:07.653Z,92912.44
2023-11-02T06:13:16.201Z,92887.69
2023-11-02T06:16:25.523Z,92871.94
2023-11-02T06:19:35.894Z,92873.78
2023-11-02T06:22:44.768Z,92871.38
2023-11-02T06:25:55.392Z,92886.91
2023-11-02T06:29:04.840Z,92891.63
2023-11-02T06:32:13.397Z,92877.09
2023-11-02T06:35:23.699Z,92875.94
2023-11-02T06:38:33.401Z,92862.69
2023-11-02T06:41:42.268Z,92853.03
2023-11-02T06:44:51.338Z,92837.25
2023-11-02T06:48:00.191Z,92821.13
2023-11-02T06:51:11.517Z,92819.84
2023-11-02T06:54:20.617Z,92799.22
2023-11-02T06:57:30.105Z,92780.66
2023-11-02T07:00:39.166Z,92775.88
2023-11-02T07:03:49.245Z,92769.84
2023-11-02T07:06:59.442Z,92766.88
2023-11-02T07:10:09.884Z,92776.28
2023-11-02T07:13:20.644Z,92777.75
2023-11-02T07:16:29.649Z,92781.38
2023-11-02T07:19:38.387Z,92794.00
2023-11-02T07:22:48.436Z,92795.63
2023-11-02T07:25:57.299Z,92793.13
2023-11-02T07:29:07.267Z,92789.63
2023-11-02T07:32:16.107Z,92774.41
2023-11-02T07:35:25.063Z,92750.59
2023-11-02T07:38:38.103Z,92745.44
2023-11-02T07:41:47.017Z,92733.22
2023-11-02T07:44:58.683Z,92745.03
2023-11-02T07:48:07.716Z,92752.66
2023-11-02T07:51:17.240Z,92745.28
2023-11-02T07:54:28.290Z,92767.00
2023-11-02T07:57:38.515Z,92766.00
2023-11-02T08:00:47.310Z,92742.50
2023-11-02T08:03:56.510Z,92734.09
2023-11-02T08:07:08.839Z,92737.59
2023-11-02T08:10:19.369Z,92731.31
2023-11-02T08:13:30.957Z,92728.13
2023-11-02T08:16:41.169Z,92724.47
2023-11-02T08:19:50.992Z,92721.28
2023-11-02T08:23:04.653Z,92694.19
2023-11-02T08:26:19.213Z,92693.19
2023-11-02T08:29:30.224Z,92689.56
2023-11-02T08:32:39.797Z,92687.59
2023-11-02T08:35:48.536Z,92687.16
2023-11-02T08:38:57.797Z,92680.47
2023-11-02T08:42:08.777Z,92658.84
2023-11-02T08:45:19.078Z,92666.31
2023-11-02T08:48:28.929Z,92676.50
2023-11-02T08:51:37.990Z,92695.19
2023-11-02T08:54:46.779Z,92691.00
2023-11-02T08:57:56.872Z,92670.72
2023-11-02T09:01:06.688Z,92662.94
2023-11-02T09:04:17.237Z,92661.59
2023-11-02T09:07:27.104Z,92631.91
2023-11-02T09:10:36.226Z,92630.16
2023-11-02T09:13:47.135Z,92636.59
2023-11-02T09:16:56.152Z,92623.09
2023-11-02T09:20:10.254Z,92613.13
2023-11-02T09:23:19.221Z,92620.97
2023-11-02T09:26:28.522Z,92626.91
2023-11-02T09:29:38.779Z,92637.38
2023-11-02T09:32:47.496Z,92632.72
2023-11-02T09:35:56.182Z,92629.09
2023-11-02T09:39:05.142Z,92612.09
2023-11-02T09:42:14.293Z,92594.28
2023-11-02T09:45:24.709Z,92588.16
2023-11-02T09:48:33.565Z,92580.69
2023-11-02T09:51:44.679Z,92583.88
2023-11-02T09:54:54.208Z,92585.47
2023-11-02T09:58:04.588Z,92580.69
2023-11-02T10:01:16.180Z,92576.97
2023-11-02T10:04:25.011Z,92584.44
2023-11-02T10:07:33.703Z,92568.22
2023-11-02T10:10:44.247Z,92555.44
2023-11-02T10:13:55.046Z,92550.38
2023-11-02T10:17:06.210Z,92536.47
2023-11-02T10:20:16.429Z,92534.00
2023-11-02T10:23:25.125Z,92517.16
2023-11-02T10:26:36.189Z,92502.59
2023-11-02T10:29:46.510Z,92499.06
2023-11-02T10:33:05.311Z,92481.69
2023-11-02T10:36:14.017Z,92477.53
2023-11-02T10:39:23.271Z,92465.41
2023-11-02T10:42:32.133Z,92471.41
2023-11-02T10:45:41.201Z,92470.06
2023-11-02T10:48:55.943Z,92461.97
2023-11-02T10:52:08.565Z,92455.28
2023-11-02T10:55:27.255Z,92455.25
2023-11-02T10:58:37.593Z,92463.31
2023-11-02T11:01:48.073Z,92477.53
2023-11-02T11:04:59.966Z,92463.41
2023-11-02T11:08:09.803Z,92443.50
2023-11-02T11:11:20.657Z,92446.47
2023-11-02T11:14:30.222Z,92435.34
2023-11-02T11:21:24.002Z,92408.78
2023-11-02T11:24:33.958Z,92410.69
2023-11-02T11:27:44.800Z,92407.56
2023-11-02T11:30:54.167Z,92409.59
2023-11-02T11:34:03.111Z,92391.50
2023-11-02T11:37:38.633Z,92382.97
2023-11-02T11:40:51.259Z,92388.84
2023-11-02T11:44:08.587Z,92381.13
2023-11-02T11:47:47.463Z,92402.13
2023-11-02T11:50:57.250Z,92424.25
2023-11-02T11:54:12.050Z,92410.84
2023-11-02T11:57:58.192Z,92433.88
2023-11-02T12:01:18.613Z,92458.09
2023-11-02T12:04:50.211Z,92461.28
2023-11-02T12:08:03.866Z,92455.94
2023-11-02T12:11:15.047Z,92468.22
2023-11-02T12:14:26.532Z,92486.13
2023-11-02T12:17:50.593Z,92489.53
2023-11-02T12:21:00.805Z,92500.75
2023-11-02T12:24:13.283Z,92510.91
2023-11-02T12:27:23.324Z,92534.38
2023-11-02T12:30:32.418Z,92555.69
2023-11-02T12:33:41.773Z,92572.72
2023-11-02T12:36:53.369Z,92622.81
2023-11-02T12:40:04.119Z,92634.91
2023-11-02T12:43:23.093Z,92641.84
2023-11-02T12:46:33.153Z,92653.47
2023-11-02T12:49:41.979Z,92654.19
2023-11-02T12:52:51.540Z,92649.75
2023-11-02T12:56:02.324Z,92656.75
2023-11-02T12:59:16.788Z,92668.22
2023-11-02T13:02:27.082Z,92666.81
2023-11-02T13:05:38.654Z,92677.31
2023-11-02T13:08:49.392Z,92677.53
2023-11-02T13:11:58.921Z,92660.28
2023-11-02T13:15:12.770Z,92676.16
2023-11-02T13:18:21.902Z,92661.09
2023-11-02T13:21:30.754Z,92667.38
2023-11-02T13:24:39.501Z,92672.50
2023-11-02T13:27:48.994Z,92692.66
2023-11-02T13:30:59.086Z,92706.53
2023-11-02T13:34:08.886Z,92702.16
2023-11-02T13:37:17.922Z,92696.63
2023-11-02T13:40:28.512Z,92695.88
2023-11-02T13:43:37.156Z,92673.16
2023-11-02T13:46:48.881Z,92668.03
2023-11-02T13:49:57.872Z,92667.75
2023-11-02T13:53:06.601Z,92674.06
2023-11-02T13:56:16.048Z,92664.31
2023-11-02T13:59:25.026Z,92654.94
2023-11-02T14:02:35.296Z,92648.97
2023-11-02T14:05:45.651Z,92650.06
2023-11-02T14:08:54.368Z,92647.94
2023-11-02T14:12:03.005Z,92644.41
2023-11-02T14:15:13.044Z,92638.31
2023-11-02T14:18:24.283Z,92647.34
2023-11-02T14:21:33.502Z,92642.91
2023-11-02T14:24:43.095Z,92640.16
2023-11-02T14:27:51.843Z,92644.56
2023-11-02T14:31:00.738Z,92647.47
2023-11-02T14:34:11.358Z,92634.66
2023-11-02T14:37:20.253Z,92656.63
2023-11-02T14:40:29.220Z,92655.69
2023-11-02T14:43:37.918Z,92644.25
2023-11-02T14:46:46.470Z,92646.06
2023-11-02T14:49:57.250Z,92643.63
2023-11-02T14:53:06.452Z,92643.25
2023-11-02T14:56:15.345Z,92629.19
2023-11-02T14:59:24.067Z,92614.97
2023-11-02T15:02:34.576Z,92614.69
2023-11-02T15:05:44.668Z,92638.44
2023-11-02T15:09:01.343Z,92640.94
2023-11-02T15:12:16.925Z,92632.34
2023-11-02T15:15:25.652Z,92631.81
2023-11-02T15:18:34.221Z,92606.84
2023-11-02T15:21:47.501Z,92589.31
2023-11-02T15:24:57.864Z,92591.94
2023-11-02T15:28:07.612Z,92596.75
2023-11-02T15:31:21.816Z,92605.16
2023-11-02T15:34:32.123Z,92589.16
2023-11-02T15:37:42.224Z,92592.34
2023-11-02T15:40:50.835Z,92589.31
2023-11-02T15:43:59.943Z,92589.00
2023-11-02T15:47:08.610Z,92585.16
2023-11-02T15:50:17.406Z,92580.91
2023-11-02T15:53:27.564Z,92587.16
2023-11-02T15:56:36.432Z,92594.16
2023-11-02T15:59:45.887Z,92578.78
2023-11-02T16:02:54.769Z,92573.16
2023-11-02T16:06:03.892Z,92560.19
2023-11-02T16:09:14.653Z,92558.50
2023-11-02T16:12:24.077Z,92564.34
2023-11-02T16:15:33.033Z,92555.00
2023-11-02T16:18:42.027Z,92540.16
2023-11-02T16:21:50.727Z,92537.06
2023-11-02T16:25:00.860Z,92543.91
2023-11-02T16:28:09.493Z,92543.53
2023-11-02T16:31:24.728Z,92550.75
2023-11-02T16:34:39.635Z,92567.16
2023-11-02T16:37:53.387Z,92579.88
2023-11-02T16:41:04.227Z,92567.94
2023-11-02T16:44:18.226Z,92560.78
2023-11-02T16:47:28.422Z,92567.97
2023-11-02T16:50:38.251Z,92556.25
2023-11-02T16:53:46.997Z,92549.81
2023-11-02T16:56:56.967Z,92545.13
2023-11-02T17:00:06.398Z,92553.09
2023-11-02T17:03:15.203Z,92542.84
2023-11-02T17:06:24.120Z,92534.16
2023-11-02T17:09:32.796Z,92503.50
2023-11-02T17:12:42.963Z,92511.38
2023-11-02T17:15:54.939Z,92505.34
2023-11-02T17:19:04.288Z,92512.09
2023-11-02T17:22:13.199Z,92511.41
2023-11-02T17:25:22.012Z,92505.22
2023-11-02T17:28:32.646Z,92496.63
2023-11-02T17:31:41.282Z,92495.56
2023-11-02T17:34:50.018Z,92506.88
2023-11-02T17:37:58.680Z,92503.72
2023-11-02T17:41:07.924Z,92501.63
2023-11-02T17:44:17.891Z,92492.66
2023-11-02T17:47:26.503Z,92496.09
2023-11-02T17:50:35.297Z,92488.50
2023-11-02T17:53:43.883Z,92477.06
2023-11-02T17:56:52.781Z,92478.59
2023-11-02T18:00:04.756Z,92486.53
2023-11-02T18:03:20.906Z,92473.91
2023-11-02T18:06:29.586Z,92453.50
2023-11-02T18:09:38.254Z,92455.34
2023-11-02T18:12:46.829Z,92448.38
2023-11-02T18:15:56.888Z,92466.19
2023-11-02T18:19:05.845Z,92492.78
2023-11-02T18:22:14.514Z,92493.34
2023-11-02T18:25:23.364Z,92483.00
2023-11-02T18:28:32.154Z,92475.44
2023-11-02T18:31:42.311Z,92473.63
2023-11-02T18:34:50.968Z,92476.00
2023-11-02T18:38:00.112Z,92473.91
2023-11-02T18:41:08.767Z,92464.91
2023-11-02T18:44:17.997Z,92451.91
2023-11-02T18:47:27.866Z,92483.19
2023-11-02T18:50:36.687Z,92529.81
2023-11-02T18:53:47.557Z,92573.97
2023-11-02T18:56:56.258Z,92573.97
2023-11-02T19:00:07.757Z,92586.00
2023-11-02T19:03:17.643Z,92564.66
2023-11-02T19:06:29.993Z,92562.41
2023-11-02T19:09:39.142Z,92561.03
2023-11-02T19:12:49.028Z,92564.97
2023-11-02T19:15:57.678Z,92569.31
2023-11-02T19:19:08.137Z,92584.06
2023-11-02T19:22:17.172Z,92587.44
2023-11-02T19:25:25.755Z,92595.28
2023-11-02T19:28:35.749Z,92607.50
2023-11-02T19:31:45.803Z,92620.66
2023-11-02T19:34:56.218Z,92615.19
2023-11-02T19:38:04.961Z,92609.31
2023-11-02T19:41:13.606Z,92608.50
2023-11-02T19:44:22.709Z,92605.63
2023-11-02T19:47:31.627Z,92606.22
2023-11-02T19:50:42.080Z,92600.25
2023-11-02T19:53:50.819Z,92588.72
2023-11-02T19:56:59.377Z,92582.19
2023-11-02T20:00:09.624Z,92575.22
2023-11-02T20:03:21.150Z,92565.69
2023-11-02T20:06:31.241Z,92568.16
2023-11-02T20:09:40.034Z,92565.91
2023-11-02T20:12:48.844Z,92572.81
2023-11-02T20:15:57.697Z,92573.41
2023-11-02T20:19:06.751Z,92583.56
2023-11-02T20:22:17.140Z,92579.09
2023-11-02T20:25:26.308Z,92568.25
2023-11-02T20:28:35.118Z,92590.13
2023-11-02T20:31:46.294Z,92591.44
2023-11-02T20:34:55.103Z,92573.38
2023-11-02T20:38:05.049Z,92570.28
2023-11-02T20:41:15.073Z,92563.66
2023-11-02T20:44:23.991Z,92551.00
2023-11-02T20:47:34.746Z,92523.16
2023-11-02T20:50:44.565Z,92517.00
2023-11-02T20:53:54.415Z,92504.72
2023-11-02T20:57:03.230Z,92501.56
2023-11-02T21:00:15.395Z,92490.28
2023-11-02T21:03:24.202Z,92422.69
2023-11-02T21:06:32.770Z,92417.28
2023-11-02T21:09:42.253Z,92431.59
2023-11-02T21:12:52.241Z,92402.53
2023-11-02T21:16:06.352Z,92391.91
2023-11-02T21:19:15.890Z,92366.38
2023-11-02T21:22:24.721Z,92366.94
2023-11-02T21:25:33.419Z,92392.84
2023-11-02T21:28:43.860Z,92394.78
2023-11-02T21:31:52.529Z,92412.41
2023-11-02T21:35:01.153Z,92415.63
2023-11-02T21:38:09.787Z,92410.31
2023-11-02T21:41:21.302Z,92428.28
2023-11-02T21:44:33.354Z,92452.91
2023-11-02T21:47:42.402Z,92474.63
2023-11-02T21:50:52.293Z,92468.53
2023-11-02T21:54:00.937Z,92467.28
2023-11-02T21:57:09.477Z,92444.25
2023-11-02T22:00:20.531Z,92431.50
2023-11-02T22:03:29.213Z,92429.09
2023-11-02T22:06:38.421Z,92440.34
2023-11-02T22:09:47.144Z,92416.03
2023-11-02T22:12:55.984Z,92359.91
2023-11-02T22:16:07.240Z,92365.13
2023-11-02T22:19:17.458Z,92378.34
2023-11-02T22:22:29.244Z,92402.22
2023-11-02T22:25:38.052Z,92381.56
2023-11-02T22:28:50.040Z,92377.09
2023-11-02T22:32:01.383Z,92381.63
2023-11-02T22:35:10.806Z,92416.94
2023-11-02T22:38:19.440Z,92411.94
2023-11-02T22:41:28.001Z,92405.22
2023-11-02T22:44:36.602Z,92406.19
2023-11-02T22:47:46.602Z,92401.19
2023-11-02T22:50:55.768Z,92370.34
2023-11-02T22:54:04.551Z,92326.09
2023-11-02T22:57:13.143Z,92330.34
2023-11-02T23:00:25.296Z,92321.56
2023-11-02T23:03:36.471Z,92300.38
2023-11-02T23:06:45.288Z,92299.75
2023-11-02T23:09:54.001Z,92335.41
2023-11-02T23:13:02.652Z,92359.69
2023-11-02T23:16:13.223Z,92369.63
2023-11-02T23:19:23.397Z,92378.75
2023-11-02T23:22:32.531Z,92405.03
2023-11-02T23:25:41.721Z,92407.16
2023-11-02T23:28:59.376Z,92409.41
2023-11-02T23:32:14.763Z,92393.75
2023-11-02T23:35:25.183Z,92397.63
2023-11-02T23:38:33.793Z,92372.69
2023-11-02T23:41:43.165Z,92379.56
2023-11-02T23:44:52.826Z,92348.63
2023-11-02T23:48:01.452Z,92354.72
2023-11-02T23:51:11.708Z,92376.84
2023-11-02T23:54:20.359Z,92364.69
2023-11-02T23:57:29.063Z,92355.94
